Tiempo atmosférico en la estación meteorológica de Cazalla De La Sierra, Sevilla (550 m.)

Fecha
DESCASC
Temp. máxima en grados centígrados (hora)
DESCASC
Temp. mínima en grados centígrados (hora)
DESCASC
Temp. media en grados centígrados
DESCASC
Racha de viento máxima en m/sg (hora)
DESCASC
Velocidad máxima media en intervalos de 10 minutos(hora)
DESCASC
Precipitaciones diarias en mm
DESCASC
Precipitaciones de 00:00 a 06:00 en mm
DESCASC
Precipitaciones de 06:00 a 12:00 en mm
DESCASC
Precipitaciones de 12:00 a 18:00 en mm
DESCASC
Precipitaciones de 18:00 a 24:00 en mm
DESCASC
21-08-2017 36.1 (17:20) 19.6 (07:40) 27.8 6.39 (11:10) 2.78 (11:10) 0 0 0 0 0
20-08-2017 36.9 (17:20) 18.7 (07:50) 27.8 6.39 (15:00) 2.78 (12:50) 0 0 0 0 0
19-08-2017 38.3 (16:40) 18.5 (07:00) 28.4 6.67 (19:30) 2.78 (16:10) 0 0 0 0 0
18-08-2017 37.6 (17:30) 18.3 (07:40) 27.9 5.83 (17:40) 3.06 (14:30) 0 0 0 0 0
17-08-2017 37.5 (16:30) 17 (00:00) 27.3 6.94 (15:30) 2.78 (16:10) 0 0 0 0 0
16-08-2017 37.3 (17:20) 16.3 (00:00) 26.8 8.33 (19:00) 3.33 (19:00) 0 0 0 0 0
15-08-2017 37.8 (16:50) 16.4 (00:00) 27.1 8.06 (18:10) 3.33 (18:20) 0 0 0 0 0
14-08-2017 34.6 (17:20) 16.3 (07:40) 25.4 7.22 (13:50) 2.78 (12:30) 0 0 0 0 0
13-08-2017 34.8 (17:40) 16.2 (00:00) 25.5 8.06 (11:10) 2.78 (15:00) 0 0 0 0 0
12-08-2017 34.4 (17:00) 15.2 (00:00) 24.8 6.39 (14:30) 2.5 (12:20) 0 0 0 0 0
11-08-2017 34.4 (18:20) 15.3 (00:00) 24.9 6.39 (11:20) 3.33 (12:00) 0 0 0 0 0
10-08-2017 33.2 (16:10) 17.4 (00:00) 25.3 8.06 (05:10) 3.89 (09:40) 0 0 0 0 0
09-08-2017 32.9 (15:40) 12.9 (00:00) 22.9 7.22 (16:50) 3.61 (02:50) 0 0 0 0 0
08-08-2017 33 (16:40) 16.2 (00:00) 24.6 8.33 (18:40) 4.44 (16:50) 0 0 0 0 0
07-08-2017 37.8 (17:50) 17.7 (00:00) 27.8 8.89 (18:00) 3.61 (20:30) 0 0 0 0 0
06-08-2017 38.4 (16:40) 15.8 (00:00) 27.1 8.33 (17:30) 3.89 (17:30) 0 0 0 0 0
05-08-2017 38.9 (17:20) 19.8 (00:00) 29.4 9.44 (18:20) 3.89 (17:30) 0 0 0 0 0
04-08-2017 40 (18:00) 20.3 (00:00) 30.1 5.83 (15:30) 2.78 (10:20) 0 0 0 0 0
03-08-2017 38.5 (17:00) 16 (00:00) 27.3 6.94 (13:40) 3.61 (19:10) 0 0 0 0 0
02-08-2017 35.7 (18:10) 13.3 (00:00) 24.5 6.11 (15:20) 3.06 (14:50) 0 0 0 0 0
01-08-2017 31.3 (17:50) 17.9 (00:00) 24.6 7.22 (01:10) 3.06 (01:00) 0 0 0 0 0
31-07-2017 33.4 (15:30) 16.8 (00:00) 25.1 8.33 (17:20) 4.17 (13:10) 0 0 0 0 0
30-07-2017 36.8 (16:10) 18.9 (00:00) 27.8 7.5 (17:20) 3.33 (16:40) 0 0 0 0 0
29-07-2017 37.6 (17:20) 16.6 (00:00) 27.1 7.78 (16:50) 3.61 (17:50) 0 0 0 0 0
28-07-2017 38.2 (17:20) 16.3 (00:00) 27.3 7.22 (14:10) 2.78 (19:40) 0 0 0 0 0
27-07-2017 36.2 (17:40) 16.8 (00:00) 26.5 6.94 (18:20) 2.78 (17:50) 0 0 0 0 0
26-07-2017 34.1 (17:50) 16.6 (00:00) 25.3 6.11 (16:10) 2.78 (19:50) 0 0 0 0 0
25-07-2017 36.6 (17:50) 15.7 (00:00) 26.1 7.22 (17:20) 3.89 (18:30) 0 0 0 0 0
24-07-2017 36 (17:50) 17.9 (00:00) 26.9 8.33 (14:50) 4.17 (15:40) 0 0 0 0 0
23-07-2017 34.6 (16:20) 14 (00:00) 24.3 11.39 (13:30) 3.06 (15:10) 0 0 0 0 0

Gráficas

Temp. máximas Temp. mínimas Temp. medias Precipitaciones Rachas de viento máximas Velocidades máximas media en intervalos de 10 minutos

Datos horarios

Fecha y hora oficial Temperatura (ºC) Velocidad del viento (km/h) Dirección del viento Racha (km/h) Dirección de racha Precipitación (mm) Presión (hPa) Tendencia (hPa) Humedad (%)
2017-08-21 23:00:00 27.2 7 Oeste 13 Oeste 0 953.2 1.5 52
2017-08-21 22:00:00 29.8 6 Sur 12 Sur 0 952.4 0.7 39
2017-08-21 21:00:00 31.4 6 Sur 18 Sudoeste 0 951.9 0.3 38
2017-08-21 20:00:00 34.4 5 Sudoeste 14 Sur 0 951.7 -0.4 32
2017-08-21 19:00:00 35.1 6 Sudeste 14 Oeste 0 951.7 -1 31
2017-08-21 18:00:00 35.7 6 Oeste 18 Oeste 0 951.6 -1.8 32
2017-08-21 17:00:00 35.3 3 Sudeste 18 Sudoeste 0 952.1 -1.7 32
2017-08-21 16:00:00 34.6 4 Sur 19 Sur 0 952.7 -1.7 35
2017-08-21 15:00:00 33.7 6 Sur 19 Sur 0 953.4 -1 38
2017-08-21 14:00:00 32 6 Sudeste 17 Sur 0 953.8 -0.7 43
2017-08-21 13:00:00 30.8 6 Sur 19 Sudeste 0 954.4 0 48
2017-08-21 12:00:00 28.9 8 Sudeste 23 Este 0 954.4 0 54
2017-08-21 11:00:00 27.4 8 Este 20 Este 0 954.5 0.7 59
2017-08-21 10:00:00 26.6 5 Sudeste 14 Sudeste 0 954.4 0.7 66
2017-08-21 09:00:00 23.4 5 Este 8 Este 0 954.4 0.8 84
2017-08-21 08:00:00 19.8 4 Este 8 Este 0 953.8 0.1 93
2017-08-21 07:00:00 20 2 Sudeste 7 Este 0 953.7 -0.1 91
2017-08-21 06:00:00 20.8 0 Calma 6 Sudeste 0 953.6 -0.3 88
2017-08-21 05:00:00 21.3 4 Este 6 Sudeste 0 953.7 -0.1 86
2017-08-21 04:00:00 22 4 Este 6 Este 0 953.8 0.1 81
2017-08-21 03:00:00 21.6 0 Calma 5 Sudeste 0 953.9 0.5 75
2017-08-21 02:00:00 22.3 0 Calma 4 Sudeste 0 953.8 0.5 70
2017-08-21 01:00:00 23.1 0 Calma 4 Este 0 953.7 0.9 68
2017-08-21 00:00:00 24.4 2 Este 6 Este 0 953.4 1.1 63
2017-08-20 23:00:00 26.1 6 Este 8 Este 0 953.3 1.2 56
2017-08-20 22:00:00 27.3 5 Este 8 Sur 0 952.8 0.4 52
2017-08-20 21:00:00 32.9 5 Sur 12 Sur 0 952.3 -0.4 40
2017-08-20 20:00:00 35.3 3 Sudeste 18 Sur 0 952.1 -1 36
2017-08-20 19:00:00 36 6 Sudeste 20 Sur 0 952.4 -1.2 35
2017-08-20 18:00:00 36.5 6 Sur 20 Este 0 952.7 -1.4 36
2017-08-20 17:00:00 36.4 8 Sur 19 Sur 0 953.1 -1.3 37
2017-08-20 16:00:00 35.7 6 Sudeste 21 Sur 0 953.6 -0.9 37
2017-08-20 15:00:00 34.7 8 Sudeste 23 Sur 0 954.1 -0.7 39
2017-08-20 14:00:00 33.7 9 Sudeste 21 Sur 0 954.4 -0.3 40
2017-08-20 13:00:00 32.3 8 Sudeste 22 Sur 0 954.5 0.1 44
2017-08-20 12:00:00 31.3 7 Sudeste 19 Sudeste 0 954.8 0.6 49
2017-08-20 11:00:00 29.8 5 Este 13 Este 0 954.7 1 53
2017-08-20 10:00:00 28.1 4 Este 9 Sudeste 0 954.4 1.2 54
2017-08-20 09:00:00 23.4 4 Este 5 Este 0 954.2 1.1 70
2017-08-20 08:00:00 18.9 3 Sudeste 4 Sudeste 0 953.7 0.6 76
2017-08-20 07:00:00 20 5 Este 9 Este 0 953.2 0.1 73
2017-08-20 06:00:00 20.6 5 Este 10 Este 0 953.1 0.2 75
2017-08-20 05:00:00 21.4 6 Este 9 Este 0 953.1 0.1 75
2017-08-20 04:00:00 21 3 Sudeste 6 Sudeste 0 953.1 0 73
2017-08-20 03:00:00 21.3 0 Calma 6 Este 0 952.9 -0.4 69
2017-08-20 02:00:00 22.2 3 Este 6 Este 0 953 -0.2 65
2017-08-20 01:00:00 23.3 3 Sudeste 6 Este 0 953.1 0.7 63
2017-08-20 00:00:00 24.5 0 Calma 6 Este 0 953.3 1.4 58
2017-08-19 23:00:00 26.6 4 Este 5 Este 0 953.2 1.8 54
2017-08-19 22:00:00 30.5 0 Calma 13 Oeste 0 952.4 1.2 42
2017-08-19 21:00:00 33.6 7 Sudoeste 21 Sudoeste 0 951.9 0.4 35
2017-08-19 20:00:00 35.7 7 Sudoeste 24 Oeste 0 951.4 -0.2 31
2017-08-19 19:00:00 37.3 8 Oeste 21 Oeste 0 951.2 -1 30
2017-08-19 18:00:00 37.6 8 Sudoeste 23 Oeste 0 951.5 -0.8 29
2017-08-19 17:00:00 37.7 5 Sur 22 Sur 0 951.6 -1.2 29
2017-08-19 16:00:00 37.3 8 Oeste 22 Oeste 0 952.2 -0.7 30
2017-08-19 15:00:00 37.7 4 Oeste 21 Oeste 0 952.3 -0.7 31
2017-08-19 14:00:00 36.4 7 Oeste 17 Oeste 0 952.8 -0.3 31
2017-08-19 13:00:00 35.4 4 Sur 12 Sur 0 952.9 0 34
2017-08-19 12:00:00 33.4 5 Este 9 Este 0 953 0.4 39
2017-08-19 11:00:00 30.8 4 Este 14 Este 0 953.1 0.6 49
2017-08-19 10:00:00 25.5 2 Este 4 Este 0 952.9 0.8 66
2017-08-19 09:00:00 22 0 Calma 6 Este 0 952.6 0.5 74
2017-08-19 08:00:00 19 5 Este 8 Este 0 952.5 0.3 75
2017-08-19 07:00:00 18.9 4 Sudeste 6 Este 0 952.1 -0.3 74
2017-08-19 06:00:00 19.5 4 Este 6 Este 0 952.1 -0.4 71
2017-08-19 05:00:00 20.5 4 Este 7 Este 0 952.2 -0.5 66
2017-08-19 04:00:00 21.5 3 Sudeste 6 Este 0 952.4 -0.5 61
2017-08-19 03:00:00 23.5 0 Calma 13 Noroeste 0 952.5 -0.3 57
2017-08-19 02:00:00 25.7 5 Noroeste 15 Noroeste 0 952.7 0 51
2017-08-19 01:00:00 23.2 0 Calma 10 Norte 0 952.9 0.6 59
2017-08-19 00:00:00 23.3 4 Este 6 Este 0 952.8 0.7 64
2017-08-18 23:00:00 24.9 3 Sudeste 6 Este 0 952.7 1.2 58
2017-08-18 22:00:00 27.7 0 Calma 10 Sudoeste 0 952.3 0.8 48
2017-08-18 21:00:00 32.8 4 Sudoeste 15 Sudoeste 0 952.1 0.4 38
2017-08-18 20:00:00 34.5 8 Sudoeste 20 Oeste 0 951.5 -0.5 35
2017-08-18 19:00:00 35.8 10 Sur 20 Oeste 0 951.5 -1.2 34
2017-08-18 18:00:00 36.9 7 Sudoeste 21 Oeste 0 951.7 -1.3 32
2017-08-18 17:00:00 36.7 3 Oeste 17 Oeste 0 952 -1.7 33
2017-08-18 16:00:00 36.4 5 Sur 21 Oeste 0 952.7 -1.3 34
2017-08-18 15:00:00 35.3 7 Sudoeste 19 Sudoeste 0 953 -1.3 36
2017-08-18 14:00:00 35.4 4 Sur 17 Sudoeste 0 953.7 -0.6 37
2017-08-18 13:00:00 34 5 Sur 16 Sur 0 954 -0.1 38
2017-08-18 12:00:00 32.9 3 Sudoeste 12 Sudoeste 0 954.3 0.4 40
2017-08-18 11:00:00 31.2 5 Sudoeste 13 Oeste 0 954.3 0.9 44
2017-08-18 10:00:00 29.2 0 Calma 4 Noroeste 0 954.1 0.9 54
2017-08-18 09:00:00 22.5 0 Calma 6 Este 0 953.9 0.8 69
2017-08-18 08:00:00 18.4 4 Este 6 Este 0 953.4 0.1 72
2017-08-18 07:00:00 19 3 Sudeste 6 Este 0 953.2 -0.4 66
2017-08-18 06:00:00 19.4 3 Sudeste 7 Este 0 953.1 -0.7 64
2017-08-18 05:00:00 19.6 5 Este 7 Este 0 953.3 -0.6 63
2017-08-18 04:00:00 20 4 Este 6 Este 0 953.6 -0.3 59
2017-08-18 03:00:00 20.4 4 Este 10 Oeste 0 953.8 -0.2 58
2017-08-18 02:00:00 21.8 4 Este 7 Este 0 953.9 -0.2 54
2017-08-18 01:00:00 22 5 Este 7 Este 0 953.9 0.5 51
2017-08-18 00:00:00 23.2 2 Este 6 Este 0 954 1.1 47
2017-08-17 23:00:00 24.6 3 Este 8 Oeste 0 954.1 1.4 41
2017-08-17 22:00:00 27.6 0 Calma 12 Sudoeste 0 953.4 0.6 33
2017-08-17 21:00:00 32.9 4 Sur 15 Sudoeste 0 952.9 -0.2 27
2017-08-17 20:00:00 34.9 5 Sudoeste 19 Sudoeste 0 952.7 -0.7 27
2017-08-17 19:00:00 36.2 6 Sudoeste 20 Oeste 0 952.8 -1.1 26
2017-08-17 18:00:00 36.6 7 Sudoeste 23 Oeste 0 953.1 -1.2 26
2017-08-17 17:00:00 36.8 4 Oeste 21 Oeste 0 953.4 -1.3 27
2017-08-17 16:00:00 36.5 5 Sudoeste 25 Sudoeste 0 953.9 -1.2 27
2017-08-17 15:00:00 36.1 5 Sur 21 Sudoeste 0 954.3 -0.8 27
2017-08-17 14:00:00 36.3 2 Sudeste 19 Noroeste 0 954.7 -0.5 28
2017-08-17 13:00:00 34.6 6 Sudeste 14 Sur 0 955.1 0 28
2017-08-17 12:00:00 34 3 Este 10 Este 0 955.1 -0.1 31
2017-08-17 11:00:00 31.1 6 Este 10 Este 0 955.2 0.4 39
2017-08-17 10:00:00 28.2 2 Este 5 Este 0 955.1 0.7 50
2017-08-17 09:00:00 21.6 2 Sudeste 7 Sudeste 0 955.2 0.9 65
2017-08-17 08:00:00 18 3 Sudeste 7 Este 0 954.8 0.5 66
2017-08-17 07:00:00 18 5 Este 7 Este 0 954.4 0.1 62
2017-08-17 06:00:00 17.9 4 Este 8 Este 0 954.3 -0.3 60
2017-08-17 05:00:00 19 5 Este 7 Este 0 954.3 -0.6 56
2017-08-17 04:00:00 18.8 5 Este 7 Este 0 954.3 -0.6 52
2017-08-17 03:00:00 20 4 Este 8 Este 0 954.6 -0.5 44
2017-08-17 02:00:00 24.8 6 Noroeste 14 Noroeste 0 954.9 -0.2 35
2017-08-17 01:00:00 22.9 3 Noroeste 12 Este 0 954.9 0 37
2017-08-17 00:00:00 23.3 0 Calma 11 Nordeste 0 955.1 0.7 37
2017-08-16 23:00:00 25.1 2 Nordeste 8 Norte 0 955.1 1.1 36
2017-08-16 22:00:00 27.2 2 Este 7 Nordeste 0 954.9 1 30
2017-08-16 21:00:00 31.7 2 Nordeste 23 Noroeste 0 954.4 0.3 25
2017-08-16 20:00:00 34.3 8 Norte 23 Norte 0 954 -0.2 23
2017-08-16 19:00:00 35.7 12 Noroeste 30 Noroeste 0 953.9 -1 21
2017-08-16 18:00:00 36.2 10 Oeste 22 Noroeste 0 954.1 -1.1 20
2017-08-16 17:00:00 36.5 7 Nordeste 23 Noroeste 0 954.2 -1.3 20
2017-08-16 16:00:00 35.2 7 Oeste 23 Noroeste 0 954.9 -1 20
2017-08-16 15:00:00 35.2 8 Oeste 22 Sudoeste 0 955.2 -1.1 21
2017-08-16 14:00:00 33.9 7 Oeste 19 Oeste 0 955.5 -0.8 22
2017-08-16 13:00:00 32.8 3 Sur 18 Sudoeste 0 955.9 -0.3 29
2017-08-16 12:00:00 30.9 2 Noroeste 11 Este 0 956.3 0 34
2017-08-16 11:00:00 28.3 5 Este 13 Este 0 956.3 0.6 42
2017-08-16 10:00:00 24.4 6 Este 11 Este 0 956.2 0.6 53
2017-08-16 09:00:00 20.5 2 Sudeste 5 Sudeste 0 956.3 1 64
2017-08-16 08:00:00 17.2 5 Este 9 Este 0 955.7 0.4 66
2017-08-16 07:00:00 17.3 3 Este 7 Este 0 955.6 0.5 61
2017-08-16 06:00:00 18.8 4 Sudeste 10 Este 0 955.3 -0.2 55
2017-08-16 05:00:00 18.6 5 Este 8 Este 0 955.3 -0.4 52
2017-08-16 04:00:00 19.1 4 Este 6 Este 0 955.1 -0.6 48
2017-08-16 03:00:00 20.9 3 Este 8 Este 0 955.5 -0.2 41
2017-08-16 02:00:00 23.7 5 Sudeste 17 Nordeste 0 955.7 0.3 36
2017-08-16 01:00:00 25.7 9 Este 19 Nordeste 0 955.7 1.1 33
2017-08-16 00:00:00 26.6 4 Noroeste 15 Noroeste 0 955.7 1.8 33
2017-08-15 23:00:00 27.4 4 Norte 11 Norte 0 955.4 2 32
2017-08-15 22:00:00 29.1 0 Calma 11 Norte 0 954.6 1.7 29
2017-08-15 21:00:00 31.7 4 Noroeste 17 Noroeste 0 953.9 1.1 27
2017-08-15 20:00:00 35 5 Noroeste 19 Noroeste 0 953.4 0.2 27
2017-08-15 19:00:00 36.8 6 Oeste 29 Noroeste 0 952.9 -0.8 23
2017-08-15 18:00:00 37.5 7 Norte 22 Noroeste 0 952.8 -1.1 24
2017-08-15 17:00:00 37.2 2 Oeste 21 Oeste 0 953.2 -1.3 27
2017-08-15 16:00:00 35.9 6 Oeste 28 Oeste 0 953.7 -0.9 32
2017-08-15 15:00:00 33.7 7 Este 19 Oeste 0 953.9 -0.9 33
2017-08-15 14:00:00 33.8 6 Sudoeste 16 Sudoeste 0 954.5 -0.4 35
2017-08-15 13:00:00 33.7 4 Sudeste 13 Sur 0 954.6 0.2 37
2017-08-15 12:00:00 31.2 4 Sudoeste 13 Sudoeste 0 954.8 0.8 42
2017-08-15 11:00:00 29.5 4 Oeste 10 Oeste 0 954.9 1 49
2017-08-15 10:00:00 26.6 4 Oeste 9 Noroeste 0 954.4 1 60
2017-08-15 09:00:00 21.6 4 Este 6 Este 0 954 0.8 80
2017-08-15 08:00:00 16.9 2 Este 6 Este 0 953.9 1.1 91
2017-08-15 07:00:00 16.9 0 Calma 5 Este 0 953.4 0.4 89
2017-08-15 06:00:00 17.7 3 Este 7 Este 0 953.2 0.2 89
2017-08-15 05:00:00 18.2 4 Este 6 Este 0 952.8 -0.1 89
2017-08-15 04:00:00 18.2 0 Calma 4 Este 0 953 0.4 82
2017-08-15 03:00:00 19.3 3 Este 6 Este 0 953 0.5 78
2017-08-15 02:00:00 20.2 0 Calma 4 Este 0 952.9 0.8 74
2017-08-15 01:00:00 21.5 2 Este 4 Este 0 952.6 1.3 69
2017-08-15 00:00:00 22.5 2 Este 10 Noroeste 0 952.5 1.9 59
2017-08-14 23:00:00 25.7 3 Oeste 9 Oeste 0 952.1 1.7 49
2017-08-14 22:00:00 28.1 4 Sur 18 Sur 0 951.3 1 41
2017-08-14 21:00:00 30.8 5 Sudoeste 10 Sudoeste 0 950.6 0 34
2017-08-14 20:00:00 32.8 5 Sudoeste 15 Sudoeste 0 950.4 -0.3 33
2017-08-14 19:00:00 33.7 6 Sudoeste 17 Este 0 950.3 -0.7 33
2017-08-14 18:00:00 33.7 6 Sur 20 Sudeste 0 950.6 -1 35
2017-08-14 17:00:00 34.1 5 Sudoeste 19 Sudoeste 0 950.7 -1.1 36
2017-08-14 16:00:00 32.3 5 Sudeste 22 Sur 0 951 -1 37
2017-08-14 15:00:00 32.6 6 Sur 21 Sudeste 0 951.6 -0.6 38
2017-08-14 14:00:00 31.9 8 Sudeste 26 Sur 0 951.8 -0.3 37
2017-08-14 13:00:00 30.4 10 Sudeste 24 Sur 0 952 0.1 39
2017-08-14 12:00:00 29.2 6 Sudeste 22 Sur 0 952.2 0.4 46
2017-08-14 11:00:00 28.6 3 Sudeste 14 Este 0 952.1 0.5 50
2017-08-14 10:00:00 27.2 4 Sudeste 10 Nordeste 0 951.9 0.7 54
2017-08-14 09:00:00 21.3 2 Sudeste 5 Este 0 951.8 0.6 76
2017-08-14 08:00:00 17.3 3 Sudeste 6 Este 0 951.6 0.3 87
2017-08-14 07:00:00 16.8 0 Calma 5 Sur 0 951.2 -0.3 87
2017-08-14 06:00:00 17.4 2 Sudeste 7 Sur 0 951.2 -0.4 85
2017-08-14 05:00:00 18.7 4 Este 8 Este 0 951.3 -0.1 80
2017-08-14 04:00:00 19.8 0 Calma 9 Oeste 0 951.5 0.1 74
2017-08-14 03:00:00 20.4 0 Calma 9 Sudoeste 0 951.6 0.1 71
2017-08-14 02:00:00 20.1 0 Calma 4 Sur 0 951.4 0 58
2017-08-14 01:00:00 23.3 2 Sudoeste 13 Nordeste 0 951.4 0.5 45
2017-08-14 00:00:00 23.8 7 Este 10 Este 0 951.5 1.2 41
2017-08-13 23:00:00 25.5 0 Calma 13 Sur 0 951.4 1.3 36
2017-08-13 22:00:00 27 0 Calma 12 Sur 0 950.9 0.8 33
2017-08-13 21:00:00 30.2 6 Sudeste 15 Sur 0 950.3 -0.2 30
2017-08-13 20:00:00 32.2 8 Sur 19 Sur 0 950.1 -0.7 30
2017-08-13 19:00:00 33.8 8 Sur 20 Sur 0 950.1 -1.3 30
2017-08-13 18:00:00 34.3 5 Sudeste 19 Este 0 950.5 -1.6 30
2017-08-13 17:00:00 33.3 7 Sudeste 20 Sur 0 950.8 -1.8 30
2017-08-13 16:00:00 34.2 4 Sudeste 24 Sur 0 951.4 -1.7 33
2017-08-13 15:00:00 33.3 10 Sur 23 Sur 0 952.1 -1.4 35
2017-08-13 14:00:00 33.1 6 Sur 21 Sur 0 952.6 -1.2 35
2017-08-13 13:00:00 31.9 8 Sur 21 Sur 0 953.1 -0.3 36
2017-08-13 12:00:00 30.1 7 Sur 29 Sur 0 953.5 0.5 36
2017-08-13 11:00:00 26.9 8 Sudeste 19 Sudeste 0 953.8 0.9 41
2017-08-13 10:00:00 26.1 8 Sudeste 21 Sudeste 0 953.4 0.5 40
2017-08-13 09:00:00 23.6 6 Sudeste 13 Sudeste 0 953 0.2 51
2017-08-13 08:00:00 17 2 Sur 5 Sudeste 0 952.9 0 78
2017-08-13 07:00:00 16.5 2 Sudeste 4 Este 0 952.9 -0.1 80
2017-08-13 06:00:00 17.1 0 Calma 3 Este 0 952.8 -0.4 73
2017-08-13 05:00:00 18.1 2 Sudeste 6 Sudeste 0 952.9 -0.7 69
2017-08-13 04:00:00 17.9 0 Calma 4 Este 0 953 -0.7 64
2017-08-13 03:00:00 18.2 0 Calma 5 Este 0 953.2 -0.8 61
2017-08-13 02:00:00 19.2 3 Este 5 Este 0 953.6 -0.2 58
2017-08-13 01:00:00 21.1 3 Sudeste 8 Este 0 953.7 0.3 50
2017-08-13 00:00:00 22.4 0 Calma 8 Nordeste 0 954 0.7 42
2017-08-12 23:00:00 25.9 3 Sudeste 15 Sur 0 953.8 0.6 36
2017-08-12 22:00:00 27.5 3 Sur 14 Sur 0 953.4 0.1 32
2017-08-12 21:00:00 29.7 6 Sur 17 Sur 0 953.3 -0.4 30
2017-08-12 20:00:00 32 6 Sur 18 Sur 0 953.2 -0.8 30
2017-08-12 19:00:00 33.2 5 Sur 15 Este 0 953.3 -1.2 30
2017-08-12 18:00:00 33.3 5 Sudoeste 21 Sur 0 953.7 -1.3 30
2017-08-12 17:00:00 34 4 Sudeste 15 Nordeste 0 954 -1.5 30
2017-08-12 16:00:00 33.5 6 Este 20 Nordeste 0 954.5 -1.3 31
2017-08-12 15:00:00 32.7 7 Sudeste 23 Este 0 955 -0.6 35
2017-08-12 14:00:00 31.4 6 Sudeste 17 Sudeste 0 955.5 -0.3 36
2017-08-12 13:00:00 30.4 8 Este 20 Este 0 955.8 0.1 38
2017-08-12 12:00:00 28.7 9 Este 19 Este 0 955.6 0.2 41
2017-08-12 11:00:00 27.2 6 Sudeste 18 Sur 0 955.8 1 46
2017-08-12 10:00:00 25.5 6 Sudeste 15 Este 0 955.7 1 44
2017-08-12 09:00:00 21.5 6 Este 9 Este 0 955.4 1.1 74
2017-08-12 08:00:00 16.7 0 Calma 6 Sur 0 954.8 0.4 83
2017-08-12 07:00:00 17.4 5 Este 12 Este 0 954.7 0.3 73
2017-08-12 06:00:00 15.4 2 Sudeste 9 Este 0 954.3 -0.2 66
2017-08-12 05:00:00 16.1 4 Sudeste 8 Este 0 954.4 -0.3 45
2017-08-12 04:00:00 16.7 3 Este 8 Este 0 954.4 -0.1 43
2017-08-12 03:00:00 17.5 4 Este 6 Este 0 954.5 -0.1 41
2017-08-12 02:00:00 18.2 0 Calma 8 Este 0 954.7 0.1 40
2017-08-12 01:00:00 18.1 5 Este 8 Este 0 954.5 0.4 40
2017-08-12 00:00:00 18.9 4 Sudeste 6 Este 0 954.6 1.3 39
2017-08-11 23:00:00 20.9 3 Sudeste 7 Este 0 954.6 1.6 39
2017-08-11 22:00:00 23.2 4 Este 8 Sudeste 0 954.1 1.1 36
2017-08-11 21:00:00 30.5 4 Nordeste 13 Nordeste 0 953.3 0 20
2017-08-11 20:00:00 32.7 6 Norte 17 Nordeste 0 953 -0.9 20
2017-08-11 19:00:00 34 6 Oeste 17 Oeste 0 953 -1.4 23
2017-08-11 18:00:00 34.1 2 Sur 15 Este 0 953.3 -1.8 27
2017-08-11 17:00:00 33.8 2 Sudeste 14 Este 0 953.9 -1.6 28
2017-08-11 16:00:00 32.5 8 Nordeste 23 Este 0 954.4 -1.6 30
2017-08-11 15:00:00 32.1 5 Sudeste 19 Este 0 955.1 -1.1 32
2017-08-11 14:00:00 30.9 6 Este 20 Este 0 955.5 -0.9 32
2017-08-11 13:00:00 30.3 5 Sudeste 21 Este 0 956 0 37
2017-08-11 12:00:00 28 12 Este 23 Este 0 956.2 0.3 40
2017-08-11 11:00:00 26.3 7 Sudeste 18 Este 0 956.4 0.8 53
2017-08-11 10:00:00 23.8 6 Este 12 Este 0 956 0.4 68
2017-08-11 09:00:00 20.4 5 Este 8 Este 0 955.9 0.2 86
2017-08-11 08:00:00 15.7 0 Calma 6 Este 0 955.6 -0.1 97
2017-08-11 07:00:00 15.5 2 Este 4 Este 0 955.6 0 94
2017-08-11 06:00:00 17 0 Calma 8 Este 0 955.7 0.1 86
2017-08-11 05:00:00 19.3 5 Este 11 Este 0 955.7 -0.2 74
2017-08-11 04:00:00 18.4 5 Este 9 Este 0 955.6 -0.4 41
2017-08-11 03:00:00 20.7 3 Sudeste 8 Este 0 955.6 -0.3 37
2017-08-11 02:00:00 21.3 4 Sudeste 16 Nordeste 0 955.9 0.3 37
2017-08-11 01:00:00 20.2 4 Este 9 Nordeste 0 956 1 41
2017-08-11 00:00:00 21.6 4 Nordeste 8 Nordeste 0 955.9 1.1 41
2017-08-10 23:00:00 21.6 2 Este 7 Nordeste 0 955.6 1 41
2017-08-10 22:00:00 23.3 3 Este 14 Nordeste 0 955 0.6 36
2017-08-10 21:00:00 28.3 5 Nordeste 19 Norte 0 954.8 0.2 32
2017-08-10 20:00:00 30.2 8 Nordeste 18 Nordeste 0 954.6 -0.1 32
2017-08-10 19:00:00 31.7 7 Nordeste 21 Norte 0 954.4 -0.9 33
2017-08-10 18:00:00 32.2 4 Nordeste 26 Norte 0 954.6 -1.3 33
2017-08-10 17:00:00 33 6 Norte 21 Este 0 954.7 -1.4 33
2017-08-10 16:00:00 32.3 8 Noroeste 22 Noroeste 0 955.3 -1 34
2017-08-10 15:00:00 31.3 8 Este 25 Este 0 955.9 -0.4 36
2017-08-10 14:00:00 29.2 6 Este 24 Este 0 956.1 0.4 36
2017-08-10 13:00:00 28.5 7 Este 21 Este 0 956.3 0.9 43
2017-08-10 12:00:00 27.6 10 Este 23 Este 0 956.3 1.4 46
2017-08-10 11:00:00 24.7 12 Este 22 Este 0 955.7 1.5 48
2017-08-10 10:00:00 22.8 11 Este 24 Este 0 955.4 1.6 50
2017-08-10 09:00:00 20.6 10 Este 23 Este 0 954.9 1.7 53
2017-08-10 08:00:00 18.9 11 Este 23 Este 0 954.2 0.9 53
2017-08-10 07:00:00 18.8 11 Este 23 Este 0 953.8 0.5 53
2017-08-10 06:00:00 19.1 11 Este 29 Este 0 953.2 0 51
2017-08-10 05:00:00 19.6 13 Nordeste 26 Este 0 953.3 -0.1 47
2017-08-10 04:00:00 20.5 6 Nordeste 15 Nordeste 0 953.3 0.3 43
2017-08-10 03:00:00 21 3 Nordeste 17 Nordeste 0 953.2 0.7 42
2017-08-10 02:00:00 21.5 7 Nordeste 15 Nordeste 0 953.4 0.9 44
2017-08-10 01:00:00 21.3 3 Nordeste 12 Nordeste 0 953 1.1 44
2017-08-10 00:00:00 17.5 0 Calma -- -- 0 952.5 1.2 49
2017-08-09 23:00:00 19.2 0 Calma -- -- 0 952.5 1.8 41
2017-08-09 22:00:00 23.5 0 Calma 12 Noroeste 0 951.9 1.6 36
2017-08-09 21:00:00 27.2 5 Norte 19 Noroeste 0 951.3 0.8 33
2017-08-09 20:00:00 29.7 7 Noroeste 22 Oeste 0 950.7 0 32
2017-08-09 19:00:00 31.5 10 Oeste 22 Oeste 0 950.3 -1.2 31
2017-08-09 18:00:00 32.4 8 Noroeste 23 Noroeste 0 950.5 -1.3 30
2017-08-09 17:00:00 32.7 9 Noroeste 26 Noroeste 0 950.7 -1.5 31
2017-08-09 16:00:00 32.4 5 Oeste 21 Noroeste 0 951.5 -0.9 31
2017-08-09 15:00:00 31.6 5 Norte 20 Oeste 0 951.8 -0.8 32
2017-08-09 14:00:00 29.8 8 Sudoeste 18 Noroeste 0 952.2 -0.3 36
2017-08-09 13:00:00 29.4 0 Calma 15 Noroeste 0 952.4 0.3 39
2017-08-09 12:00:00 28.5 2 Noroeste 10 Oeste 0 952.6 0.7 43
2017-08-09 11:00:00 25.9 6 Noroeste 11 Noroeste 0 952.5 0.7 50
2017-08-09 10:00:00 23.7 6 Noroeste 13 Noroeste 0 952.1 0.2 58
2017-08-09 09:00:00 18.1 3 Este 6 Este 0 951.9 0 76
2017-08-09 08:00:00 13.3 3 Este 8 Norte 0 951.8 -0.2 85
2017-08-09 07:00:00 14.8 4 Nordeste 7 Nordeste 0 951.9 0 81
2017-08-09 06:00:00 13.7 2 Este 7 Noroeste 0 951.9 -0.1 78
2017-08-09 05:00:00 16 2 Nordeste 8 Noroeste 0 952 -0.1 69
2017-08-09 04:00:00 18.1 0 Calma 18 Noroeste 0 951.9 -0.3 63
2017-08-09 03:00:00 19.6 12 Noroeste 22 Noroeste 0 952 0.1 58
2017-08-09 02:00:00 20.3 8 Noroeste 17 Norte 0 952.1 -0.3 42
2017-08-09 01:00:00 21.7 6 Noroeste 13 Noroeste 0 952.2 0.4 34
2017-08-09 00:00:00 22.8 5 Nordeste 9 Nordeste 0 951.9 0.5 31
2017-08-08 23:00:00 23.3 5 Nordeste 12 Nordeste 0 952.4 1.1 30
2017-08-08 22:00:00 24 3 Norte 13 Noroeste 0 951.8 0.5 29
2017-08-08 21:00:00 27.7 9 Noroeste 21 Norte 0 951.4 -0.1 26
2017-08-08 20:00:00 30 11 Noroeste 22 Noroeste 0 951.3 -0.4 26
2017-08-08 19:00:00 31.6 12 Noroeste 30 Noroeste 0 951.3 -0.8 27
2017-08-08 18:00:00 32.2 9 Noroeste 25 Noroeste 0 951.5 -0.8 27
2017-08-08 17:00:00 31.7 12 Noroeste 28 Noroeste 0 951.7 -0.9 27
2017-08-08 16:00:00 31.9 13 Noroeste 29 Noroeste 0 952.1 -0.7 28
2017-08-08 15:00:00 31.4 8 Norte 27 Noroeste 0 952.3 -0.6 31
2017-08-08 14:00:00 31.2 11 Noroeste 23 Norte 0 952.6 0.1 35
2017-08-08 13:00:00 29.5 6 Noroeste 20 Norte 0 952.8 0.5 41
2017-08-08 12:00:00 27.5 10 Noroeste 25 Noroeste 0 952.9 0.8 46
2017-08-08 11:00:00 24.7 8 Norte 22 Nordeste 0 952.5 1 53
2017-08-08 10:00:00 20.9 8 Norte 23 Nordeste 0 952.3 1.4 61
2017-08-08 09:00:00 18.6 8 Nordeste 15 Nordeste 0 952.1 1.3 65
2017-08-08 08:00:00 16.4 6 Nordeste 14 Nordeste 0 951.5 0.6 62
2017-08-08 07:00:00 17.4 6 Nordeste 15 Nordeste 0 950.9 0 54
2017-08-08 06:00:00 18 3 Norte 18 Noroeste 0 950.8 -0.4 50
2017-08-08 05:00:00 19.6 9 Noroeste 27 Noroeste 0 950.9 -0.8 45
2017-08-08 04:00:00 21.2 11 Noroeste 22 Noroeste 0 950.9 -1 44
2017-08-08 03:00:00 22.2 11 Noroeste 22 Noroeste 0 951.2 -0.4 47
2017-08-08 02:00:00 23 4 Noroeste 15 Noroeste 0 951.7 0.4 43
2017-08-08 01:00:00 24.5 5 Noroeste 19 Noroeste 0 951.9 1.3 37
2017-08-08 00:00:00 26.7 13 Noroeste 22 Noroeste 0 951.6 1.6 32
2017-08-07 23:00:00 27.2 8 Noroeste 16 Noroeste 0 951.3 1.8 29
2017-08-07 22:00:00 28.6 7 Noroeste 15 Noroeste 0 950.6 1.1 26
2017-08-07 21:00:00 32.3 5 Noroeste 24 Oeste 0 950 0.1 24
2017-08-07 20:00:00 36.1 9 Oeste 27 Sudoeste 0 949.5 -0.9 24
2017-08-07 19:00:00 36.6 8 Sudoeste 26 Sudoeste 0 949.5 -1.2 26
2017-08-07 18:00:00 36.7 12 Sudoeste 32 Oeste 0 949.9 -1.3 27
2017-08-07 17:00:00 36.4 10 Sudoeste 26 Oeste 0 950.4 -1.2 30
2017-08-07 16:00:00 36.3 8 Sudoeste 25 Oeste 0 950.7 -1.4 29
2017-08-07 15:00:00 35.4 7 Sudoeste 24 Sudoeste 0 951.2 -1 30
2017-08-07 14:00:00 35.1 0 Calma 18 Noroeste 0 951.6 -0.6 31
2017-08-07 13:00:00 33.6 2 Sudoeste 13 Noroeste 0 952.1 -0.1 34
2017-08-07 12:00:00 31.3 4 Sur 14 Sudoeste 0 952.2 0 39
2017-08-07 11:00:00 30.1 6 Noroeste 19 Oeste 0 952.2 -0.4 45
2017-08-07 10:00:00 28.2 8 Oeste 17 Noroeste 0 952.2 0.2 48
2017-08-07 09:00:00 22.9 3 Este 7 Este 0 952.2 0.6 55
2017-08-07 08:00:00 18 0 Calma 7 Este 0 952.6 1.1 59
2017-08-07 07:00:00 18.9 0 Calma 7 Este 0 952 -0.1 56
2017-08-07 06:00:00 20.5 4 Sudeste 9 Este 0 951.6 0 55
2017-08-07 05:00:00 20.9 4 Este 7 Este 0 951.5 -1.1 53
2017-08-07 04:00:00 21.7 0 Calma 12 Este 0 952.1 -0.1 50
2017-08-07 03:00:00 23.7 4 Sudeste 10 Este 0 951.6 -0.8 50
2017-08-07 02:00:00 23 0 Calma 11 Este 0 952.6 0.5 50
2017-08-07 01:00:00 22.1 3 Este 8 Este 0 952.2 0.6 53
2017-08-07 00:00:00 22.6 5 Este 6 Este 0 952.4 1.4 51
2017-08-06 23:00:00 24.6 2 Sur 7 Sudeste 0 952.1 1.9 47
2017-08-06 22:00:00 27.3 0 Calma 11 Sur 0 951.6 1.2 39
2017-08-06 21:00:00 32.7 5 Sur 20 Sudoeste 0 951 0.4 33
2017-08-06 20:00:00 36.1 8 Sudoeste 23 Sudoeste 0 950.2 -0.6 27
2017-08-06 19:00:00 37.5 6 Sudoeste 23 Oeste 0 950.4 -0.6 26
2017-08-06 18:00:00 37.8 8 Sudoeste 30 Oeste 0 950.6 -1 26
2017-08-06 17:00:00 37.5 7 Sudoeste 26 Noroeste 0 950.8 -1.2 26
2017-08-06 16:00:00 37.7 8 Oeste 25 Oeste 0 951 -1.3 26
2017-08-06 15:00:00 36.6 11 Oeste 27 Oeste 0 951.6 -1 28
2017-08-06 14:00:00 35.9 0 Calma 21 Oeste 0 952 -0.4 31
2017-08-06 13:00:00 34 6 Sudoeste 19 Sur 0 952.3 -0.1 32
2017-08-06 12:00:00 32.6 6 Sudoeste 13 Sudoeste 0 952.6 0.4 35
2017-08-06 11:00:00 31.6 3 Este 8 Este 0 952.4 0.6 39
2017-08-06 10:00:00 28 4 Este 10 Este 0 952.4 0.8 46
2017-08-06 09:00:00 22.2 4 Sudeste 10 Este 0 952.2 0.7 64
2017-08-06 08:00:00 16.7 8 Este 10 Este 0 951.8 0.5 75
2017-08-06 07:00:00 16.6 6 Este 9 Este 0 951.6 0.1 72
2017-08-06 06:00:00 17.3 5 Este 9 Este 0 951.5 -0.2 67
2017-08-06 05:00:00 17.8 4 Sudeste 8 Este 0 951.3 -0.9 62
2017-08-06 04:00:00 19.9 4 Sudeste 8 Este 0 951.5 -0.7 54
2017-08-06 03:00:00 23.4 0 Calma 8 Oeste 0 951.7 -0.4 46
2017-08-06 02:00:00 25.2 0 Calma 12 Noroeste 0 952.2 0.4 42
2017-08-06 01:00:00 27.1 7 Noroeste 16 Noroeste 0 952.2 1.5 40
2017-08-06 00:00:00 27.3 3 Noroeste 13 Noroeste 0 952.1 1.9 42
2017-08-05 23:00:00 28 0 Calma 17 Noroeste 0 951.8 2 38
2017-08-05 22:00:00 30.8 6 Oeste 20 Noroeste 0 950.7 0.9 34
2017-08-05 21:00:00 35.4 9 Noroeste 23 Sudoeste 0 950.2 0.5 30
2017-08-05 20:00:00 36.1 9 Sudoeste 28 Sur 0 949.8 -0.4 34
2017-08-05 19:00:00 37.1 11 Sudoeste 34 Noroeste 0 949.8 -0.9 32
2017-08-05 18:00:00 38.5 11 Sudoeste 30 Oeste 0 949.7 -1.6 30
2017-08-05 17:00:00 38.3 8 Sudoeste 28 Noroeste 0 950.2 -1.6 33
2017-08-05 16:00:00 38.2 6 Sudoeste 26 Oeste 0 950.7 -1.7 33
2017-08-05 15:00:00 37.6 9 Oeste 26 Oeste 0 951.3 -1.1 33
2017-08-05 14:00:00 36.9 7 Sudoeste 19 Oeste 0 951.8 -0.7 35
2017-08-05 13:00:00 36.2 5 Sudoeste 18 Oeste 0 952.4 0 37
2017-08-05 12:00:00 34.6 4 Sur 15 Oeste 0 952.4 0.2 41
2017-08-05 11:00:00 33.1 3 Noroeste 8 Noroeste 0 952.5 0.8 45
2017-08-05 10:00:00 29.8 4 Sudeste 9 Este 0 952.4 1 53
2017-08-05 09:00:00 24.2 2 Sudeste 5 Este 0 952.2 0.8 68
2017-08-05 08:00:00 20.1 3 Este 7 Este 0 951.7 0.2 72
2017-08-05 07:00:00 21.1 5 Este 7 Este 0 951.4 -0.3 70
2017-08-05 06:00:00 21.5 4 Este 6 Este 0 951.4 -0.6 70
2017-08-05 05:00:00 22 3 Este 6 Este 0 951.5 -0.5 68
2017-08-05 04:00:00 23.8 4 Este 6 Este 0 951.7 -0.6 61
2017-08-05 03:00:00 26.6 0 Calma 12 Noroeste 0 952 -0.2 52
2017-08-05 02:00:00 27.5 6 Noroeste 12 Noroeste 0 952 0.1 51
2017-08-05 01:00:00 26.8 0 Calma 11 Este 0 952.3 1 52
2017-08-05 00:00:00 26.8 3 Sudeste 7 Sudeste 0 952.2 1.3 52
2017-08-04 23:00:00 29 4 Sudeste 10 Sudoeste 0 951.9 1.5 45
2017-08-04 22:00:00 33.5 8 Sudoeste 15 Sudoeste 0 951.3 0.8 37
2017-08-04 21:00:00 36.6 5 Sudoeste 14 Oeste 0 950.9 0.1 32
2017-08-04 20:00:00 39 3 Noroeste 19 Noroeste 0 950.4 -0.8 29
2017-08-04 19:00:00 39.3 6 Noroeste 21 Oeste 0 950.5 -1.3 29
2017-08-04 18:00:00 39.8 7 Norte 20 Oeste 0 950.8 -1.8 29
2017-08-04 17:00:00 38.9 9 Oeste 19 Noroeste 0 951.2 -1.9 31
2017-08-04 16:00:00 38.5 4 Este 21 Nordeste 0 951.8 -1.8 32
2017-08-04 15:00:00 38.5 7 Noroeste 18 Noroeste 0 952.6 -1.3 33
2017-08-04 14:00:00 37.5 3 Nordeste 16 Nordeste 0 953.1 -0.7 37
2017-08-04 13:00:00 36.2 5 Norte 16 Norte 0 953.6 -0.3 37
2017-08-04 12:00:00 35.1 5 Nordeste 20 Nordeste 0 953.9 0.3 41
2017-08-04 11:00:00 33.4 7 Nordeste 19 Nordeste 0 953.8 0.4 46
2017-08-04 10:00:00 30.6 7 Nordeste 21 Nordeste 0 953.9 0.6 52
2017-08-04 09:00:00 27.2 7 Nordeste 14 Nordeste 0 953.6 0.5 61
2017-08-04 08:00:00 22.5 4 Este 8 Este 0 953.4 0.1 75
2017-08-04 07:00:00 20.4 4 Este 6 Sudeste 0 953.3 0 78
2017-08-04 06:00:00 21.8 4 Este 8 Sudeste 0 953.1 -0.3 70
2017-08-04 05:00:00 23.2 0 Calma 12 Noroeste 0 953.3 -0.4 65
2017-08-04 04:00:00 24.4 6 Noroeste 13 Norte 0 953.3 -0.5 60
2017-08-04 03:00:00 25.1 8 Noroeste 14 Norte 0 953.4 -0.5 55
2017-08-04 02:00:00 24.1 0 Calma 9 Noroeste 0 953.7 -0.2 42
2017-08-04 01:00:00 26.5 0 Calma 8 Nordeste 0 953.8 0.3 37
2017-08-04 00:00:00 24.4 2 Este 10 Norte 0 953.9 0.8 33
2017-08-03 23:00:00 28.9 4 Noroeste 11 Noroeste 0 953.9 1.2 27
2017-08-03 22:00:00 30.8 4 Noroeste 11 Noroeste 0 953.5 0.9 26
2017-08-03 21:00:00 34.1 0 Calma 17 Norte 0 953.1 0.4 25
2017-08-03 20:00:00 36.2 10 Noroeste 23 Norte 0 952.7 -0.5 25
2017-08-03 19:00:00 37.6 11 Noroeste 25 Noroeste 0 952.6 -1 25
2017-08-03 18:00:00 37.1 6 Nordeste 22 Este 0 952.7 -1.3 25
2017-08-03 17:00:00 38.2 5 Noroeste 17 Noroeste 0 953.2 -1.3 24
2017-08-03 16:00:00 37.4 6 Oeste 22 Noroeste 0 953.6 -1.3 25
2017-08-03 15:00:00 36.2 3 Sudeste 21 Oeste 0 954 -1.3 27
2017-08-03 14:00:00 35.5 4 Sur 25 Oeste 0 954.5 -0.9 28
2017-08-03 13:00:00 34.7 5 Oeste 16 Oeste 0 954.9 -0.5 31
2017-08-03 12:00:00 33.5 4 Noroeste 12 Nordeste 0 955.3 0.1 33
2017-08-03 11:00:00 31 7 Nordeste 18 Nordeste 0 955.4 0.4 37
2017-08-03 10:00:00 28.9 3 Este 14 Nordeste 0 955.4 0.6 43
2017-08-03 09:00:00 21.4 0 Calma 6 Este 0 955.2 0.5 61
2017-08-03 08:00:00 17.8 5 Este 8 Este 0 955 0.3 62
2017-08-03 07:00:00 16.7 6 Este 8 Este 0 954.8 0 64
2017-08-03 06:00:00 16.7 4 Este 8 Este 0 954.7 0 61
2017-08-03 05:00:00 16.6 5 Este 6 Este 0 954.7 -0.2 57
2017-08-03 04:00:00 18.2 3 Este 7 Este 0 954.8 0 51
2017-08-03 03:00:00 22.7 0 Calma 15 Noroeste 0 954.7 0 42
2017-08-03 02:00:00 21.9 3 Norte 10 Norte 0 954.9 0.3 46
2017-08-03 01:00:00 25.4 4 Noroeste 15 Nordeste 0 954.8 0.9 41
2017-08-03 00:00:00 22.9 4 Nordeste 10 Norte 0 954.7 1.7 50
2017-08-02 23:00:00 22.9 3 Este 9 Sur 0 954.6 2.1 46
2017-08-02 22:00:00 28.9 5 Sur 11 Sur 0 953.9 1.4 34
2017-08-02 21:00:00 31.6 5 Sudoeste 19 Oeste 0 953 0.3 31
2017-08-02 20:00:00 33.4 6 Sudoeste 19 Noroeste 0 952.5 -0.4 30
2017-08-02 19:00:00 35.5 2 Noroeste 16 Este 0 952.5 -0.9 29
2017-08-02 18:00:00 35.4 5 Norte 21 Oeste 0 952.7 -1 29
2017-08-02 17:00:00 34 5 Este 16 Oeste 0 952.9 -1.1 30
2017-08-02 16:00:00 34 9 Oeste 22 Norte 0 953.4 -1.1 31
2017-08-02 15:00:00 32.9 5 Norte 22 Noroeste 0 953.7 -0.8 32
2017-08-02 14:00:00 33.1 6 Noroeste 16 Este 0 954 -0.4 34
2017-08-02 13:00:00 30.7 2 Sudeste 14 Este 0 954.5 0.4 37
2017-08-02 12:00:00 29.7 4 Sudeste 14 Este 0 954.5 0.4 40
2017-08-02 11:00:00 27.5 4 Este 14 Nordeste 0 954.4 0.5 44
2017-08-02 10:00:00 24.4 6 Nordeste 14 Nordeste 0 954.1 0.4 50
2017-08-02 09:00:00 18.3 0 Calma 5 Este 0 954.1 0.7 69
2017-08-02 08:00:00 14.5 2 Sudeste 5 Sudeste 0 953.9 0.1 76
2017-08-02 07:00:00 13.5 3 Este 6 Este 0 953.7 -0.2 75
2017-08-02 06:00:00 15.3 3 Este 6 Este 0 953.4 -0.7 69
2017-08-02 05:00:00 15.4 3 Este 7 Este 0 953.8 -0.3 66
2017-08-02 04:00:00 17 5 Este 6 Este 0 953.9 -0.2 61
2017-08-02 03:00:00 17.1 3 Este 8 Sudeste 0 954.1 0.2 59
2017-08-02 02:00:00 20.2 2 Noroeste 13 Norte 0 954.1 0.5 51
2017-08-02 01:00:00 19.4 2 Este 9 Noroeste 0 954.1 1.4 64
2017-08-02 00:00:00 18.8 2 Sudeste 5 Este 0 953.9 2 65
2017-08-01 23:00:00 21.7 3 Este 6 Sur 0 953.6 2.3 56
2017-08-01 22:00:00 24.9 0 Calma 12 Oeste 0 952.7 1.6 47
2017-08-01 21:00:00 27.7 6 Sudoeste 22 Sudoeste 0 951.9 0.6 40
2017-08-01 20:00:00 29 10 Sudoeste 22 Sudoeste 0 951.3 0 38
2017-08-01 19:00:00 31.1 4 Sudoeste 22 Oeste 0 951.1 -0.4 36
2017-08-01 18:00:00 30.8 4 Oeste 23 Oeste 0 951.3 -0.6 35
2017-08-01 17:00:00 30 6 Sudoeste 17 Sudoeste 0 951.3 -0.6 34
2017-08-01 16:00:00 29.7 6 Oeste 17 Noroeste 0 951.5 -0.1 34
2017-08-01 15:00:00 28.9 7 Noroeste 18 Oeste 0 951.9 0.2 41
2017-08-01 14:00:00 26.5 0 Calma 14 Oeste 0 951.9 0.6 48
2017-08-01 13:00:00 23.8 0 Calma 8 Sur 0 951.6 0.3 59
2017-08-01 12:00:00 22.6 3 Oeste 9 Oeste 0 951.7 1.5 62
2017-08-01 11:00:00 21.4 4 Este 13 Noroeste 0 951.3 1.5 63
2017-08-01 10:00:00 19.8 7 Noroeste 16 Noroeste 0 951.3 1.5 68
2017-08-01 09:00:00 18.8 2 Nordeste 13 Este 0 950.2 0.8 69
2017-08-01 08:00:00 18.2 4 Este 10 Este 0 949.8 0.6 67
2017-08-01 07:00:00 18.2 3 Este 8 Este 0 949.8 0.5 65
2017-08-01 06:00:00 18.6 3 Este 9 Nordeste 0 949.4 0.2 63
2017-08-01 05:00:00 19 3 Este 9 Este 0 949.2 -0.1 60
2017-08-01 04:00:00 19.5 3 Nordeste 11 Norte 0 949.3 0 54
2017-08-01 03:00:00 20.1 4 Norte 10 Norte 0 949.2 0 50
2017-08-01 02:00:00 21 6 Noroeste 26 Noroeste 0 949.3 0.5 47
2017-08-01 01:00:00 21.7 11 Noroeste 25 Noroeste 0 949.3 1.4 46
2017-08-01 00:00:00 22.8 5 Noroeste 13 Oeste 0 949.2 2.2 43
2017-07-31 23:00:00 24 3 Norte 11 Norte 0 948.8 2.3 37
2017-07-31 22:00:00 25.6 3 Noroeste 15 Oeste 0 947.9 1.5 33
2017-07-31 21:00:00 28.5 6 Sudoeste 25 Sudoeste 0 947 0.3 30
2017-07-31 20:00:00 31 10 Sudoeste 23 Sudoeste 0 946.5 -0.6 29
2017-07-31 19:00:00 32 8 Sudoeste 25 Oeste 0 946.4 -1.2 30
2017-07-31 18:00:00 33 8 Sudoeste 30 Sudoeste 0 946.7 -1.3 33
2017-07-31 17:00:00 32.1 12 Sudoeste 25 Sudoeste 0 947.1 -1.2 36
2017-07-31 16:00:00 32.2 13 Oeste 28 Oeste 0 947.6 -0.7 37
2017-07-31 15:00:00 32.5 9 Oeste 22 Sudoeste 0 948 -0.5 35
2017-07-31 14:00:00 31.4 8 Sudoeste 27 Oeste 0 948.3 -0.1 34
2017-07-31 13:00:00 30.7 13 Oeste 28 Oeste 0 948.3 0 33
2017-07-31 12:00:00 30 4 Sudoeste 16 Sudoeste 0 948.5 0.3 32
2017-07-31 11:00:00 27.9 5 Sudoeste 10 Noroeste 0 948.4 0.5 35
2017-07-31 10:00:00 25.2 6 Noroeste 9 Oeste 0 948.3 0.4 42
2017-07-31 09:00:00 21.1 3 Sudeste 10 Este 0 948.2 0.3 57
2017-07-31 08:00:00 17 5 Este 11 Este 0 947.9 -0.2 62
2017-07-31 07:00:00 17.1 3 Sudeste 6 Este 0 947.9 -0.1 61
2017-07-31 06:00:00 18 4 Este 7 Este 0 947.9 -0.6 58
2017-07-31 05:00:00 20.9 3 Noroeste 12 Noroeste 0 948.1 -0.8 50
2017-07-31 04:00:00 22 5 Noroeste 21 Norte 0 948 -0.9 51
2017-07-31 03:00:00 23.1 6 Noroeste 23 Noroeste 0 948.5 -0.4 49
2017-07-31 02:00:00 24.3 10 Noroeste 21 Noroeste 0 948.9 0.2 47
2017-07-31 01:00:00 24.7 7 Noroeste 15 Norte 0 948.9 0.8 47
2017-07-31 00:00:00 23.4 4 Norte 6 Norte 0 948.9 1.3 56
2017-07-30 23:00:00 24.9 0 Calma 9 Sur 0 948.7 1.2 53
2017-07-30 22:00:00 29.5 5 Sur 18 Sudoeste 0 948.1 0.4 45
2017-07-30 21:00:00 31.4 8 Sudoeste 24 Sudoeste 0 947.6 -0.4 45
2017-07-30 20:00:00 33.3 11 Sudoeste 22 Sur 0 947.5 -1 42
2017-07-30 19:00:00 35.2 9 Sudoeste 23 Sur 0 947.7 -1.5 33
2017-07-30 18:00:00 36.2 7 Sudoeste 27 Oeste 0 948 -1.8 30
2017-07-30 17:00:00 35.8 5 Sudoeste 22 Oeste 0 948.5 -1.7 30
2017-07-30 16:00:00 36.4 8 Sudoeste 22 Noroeste 0 949.2 -1.4 29
2017-07-30 15:00:00 35.8 7 Sudoeste 21 Oeste 0 949.8 -1.2 29
2017-07-30 14:00:00 35.5 8 Oeste 24 Sur 0 950.2 -1 30
2017-07-30 13:00:00 34.6 9 Oeste 18 Oeste 0 950.6 -0.7 32
2017-07-30 12:00:00 33 5 Sudeste 16 Noroeste 0 951 0 32
2017-07-30 11:00:00 31.5 8 Noroeste -- -- -- 951.2 0.4 33
2017-07-30 10:00:00 28 4 Noroeste 8 Noroeste 0 951.3 0.3 44
2017-07-30 09:00:00 23.7 3 Este 9 Este 0 951 -0.3 55
2017-07-30 08:00:00 19.6 5 Este 10 Este 0 950.8 -0.9 59
2017-07-30 07:00:00 19.8 5 Este 9 Este 0 951 -1 58
2017-07-30 06:00:00 20.2 4 Este 8 Este 0 951.3 -0.9 60
2017-07-30 05:00:00 21 3 Este 8 Nordeste 0 951.7 -0.7 59
2017-07-30 04:00:00 23.2 2 Nordeste 7 Norte 0 952 -0.6 59
2017-07-30 03:00:00 25.6 3 Noroeste 17 Noroeste 0 952.2 -0.7 50
2017-07-30 02:00:00 25 5 Noroeste 13 Noroeste 0 952.4 -0.5 49
2017-07-30 01:00:00 22.6 3 Sudeste 8 Sudeste 0 952.6 0.4 62
2017-07-30 00:00:00 24.1 5 Este 7 Este 0 952.9 1 58
2017-07-29 23:00:00 25.7 0 Calma 8 Sur 0 952.9 1.1 51
2017-07-29 22:00:00 30.6 5 Sur 14 Sur 0 952.2 0.5 39
2017-07-29 21:00:00 32.7 6 Sur 21 Oeste 0 951.9 -0.2 33
2017-07-29 20:00:00 34.5 9 Sudoeste 24 Sudoeste 0 951.8 -0.6 31
2017-07-29 19:00:00 35.4 11 Sudoeste 25 Sudoeste 0 951.7 -1.1 26
2017-07-29 18:00:00 37.1 10 Oeste 27 Oeste 0 952.1 -1.1 26
2017-07-29 17:00:00 37.2 8 Oeste 28 Oeste 0 952.4 -1.3 25
2017-07-29 16:00:00 36 11 Oeste 22 Noroeste 0 952.8 -1.1 25
2017-07-29 15:00:00 35.9 6 Sudoeste 23 Noroeste 0 953.2 -0.9 26
2017-07-29 14:00:00 35 7 Sudoeste 20 Oeste 0 953.7 -0.4 25
2017-07-29 13:00:00 34.7 8 Noroeste 22 Oeste 0 953.9 -0.1 26
2017-07-29 12:00:00 32.6 6 Sudoeste 12 Oeste 0 954.1 0.3 35
2017-07-29 11:00:00 31.7 3 Noroeste 12 Oeste 0 954.1 0.6 43
2017-07-29 10:00:00 28.4 2 Oeste 9 Noroeste 0 954 0.7 50
2017-07-29 09:00:00 22.1 2 Este 7 Este 0 953.8 0.7 70
2017-07-29 08:00:00 17.4 5 Este 8 Sudeste 0 953.5 0.5 72
2017-07-29 07:00:00 17.3 4 Este 9 Este 0 953.3 0.3 73
2017-07-29 06:00:00 17.8 5 Este 8 Sudeste 0 953.1 -0.1 71
2017-07-29 05:00:00 18.3 5 Este 8 Este 0 953 -0.4 67
2017-07-29 04:00:00 20.4 3 Este 8 Noroeste 0 953 -0.6 58
2017-07-29 03:00:00 24.4 4 Noroeste 13 Noroeste 0 953.2 0 48
2017-07-29 02:00:00 24.8 5 Noroeste 14 Noroeste 0 953.4 0.1 45
2017-07-29 01:00:00 25.2 5 Noroeste 10 Noroeste 0 953.6 1 41
2017-07-29 00:00:00 24.2 6 Nordeste 10 Nordeste 0 953.2 1.1 47
2017-07-28 23:00:00 24.5 3 Este 8 Este 0 953.3 1.6 44
2017-07-28 22:00:00 27 2 Sudeste 8 Sudeste 0 952.6 1.2 36
2017-07-28 21:00:00 33.2 5 Sudoeste 21 Sudoeste 0 952.1 0.4 26
2017-07-28 20:00:00 35 9 Sudoeste 22 Oeste 0 951.7 -0.3 24
2017-07-28 19:00:00 36.7 7 Sudoeste 26 Oeste 0 951.4 -0.9 23
2017-07-28 18:00:00 37.4 3 Oeste 20 Noroeste 0 951.7 -1.2 23
2017-07-28 17:00:00 37.1 5 Oeste 21 Sudoeste 0 952 -1.3 23
2017-07-28 16:00:00 36.9 5 Oeste 20 Oeste 0 952.3 -1.2 23
2017-07-28 15:00:00 36.5 9 Oeste 26 Oeste 0 952.9 -0.4 25
2017-07-28 14:00:00 36 5 Noroeste 18 Oeste 0 953.3 -0.2 27
2017-07-28 13:00:00 34.4 3 Sudoeste 17 Oeste 0 953.5 0.2 29
2017-07-28 12:00:00 32.8 2 Sur 12 Sudoeste 0 953.3 0.4 31
2017-07-28 11:00:00 31.4 2 Sudoeste 10 Oeste 0 953.5 0.8 38
2017-07-28 10:00:00 27.5 5 Este 9 Este 0 953.3 0.7 49
2017-07-28 09:00:00 22.4 5 Este 8 Este 0 952.9 0.6 62
2017-07-28 08:00:00 17.7 4 Sudeste 8 Este 0 952.7 0.5 66
2017-07-28 07:00:00 17.8 6 Este 9 Sudeste 0 952.6 0.2 63
2017-07-28 06:00:00 18.3 5 Este 9 Este 0 952.3 -0.1 60
2017-07-28 05:00:00 18.5 4 Este 6 Este 0 952.2 -0.3 60
2017-07-28 04:00:00 20.2 3 Este 6 Norte 0 952.4 0.4 53
2017-07-28 03:00:00 24.6 4 Oeste 16 Noroeste 0 952.4 0.4 42
2017-07-28 02:00:00 25.3 6 Noroeste 14 Noroeste 0 952.5 0.5 39
2017-07-28 01:00:00 23.9 5 Norte 10 Norte 0 952 0.7 44
2017-07-28 00:00:00 22 4 Este 6 Sudeste 0 952 1.3 50
2017-07-27 23:00:00 23.3 3 Este 4 Este 0 952 1.9 43
2017-07-27 22:00:00 29.3 0 Calma 12 Sur 0 951.3 1.2 33
2017-07-27 21:00:00 32.3 8 Sur 21 Sur 0 950.7 0.1 31
2017-07-27 20:00:00 34.1 7 Sudoeste 21 Sudoeste 0 950.1 -0.8 30
2017-07-27 19:00:00 34.8 10 Sudoeste 25 Sur 0 950.1 -1.3 31
2017-07-27 18:00:00 35.6 5 Sudoeste 21 Sudoeste 0 950.6 -1.3 31
2017-07-27 17:00:00 35.4 6 Sudoeste 23 Noroeste 0 950.9 -1.3 31
2017-07-27 16:00:00 35.1 7 Sudoeste 22 Oeste 0 951.4 -1.1 32
2017-07-27 15:00:00 34.6 6 Sudoeste 19 Oeste 0 951.9 -0.7 34
2017-07-27 14:00:00 33.7 6 Oeste 20 Oeste 0 952.2 -0.6 37
2017-07-27 13:00:00 32.2 6 Sudoeste 16 Sudoeste 0 952.5 0 40
2017-07-27 12:00:00 31.2 5 Sudoeste 14 Oeste 0 952.6 0.2 41
2017-07-27 11:00:00 29.7 5 Sudoeste 10 Sudoeste 0 952.8 0.6 46
2017-07-27 10:00:00 28 3 Sudeste 5 Este 0 952.5 0.7 55
2017-07-27 09:00:00 21.5 4 Este 6 Este 0 952.4 0.8 70
2017-07-27 08:00:00 17.5 3 Sudeste 4 Sudeste 0 952.2 0.9 76
2017-07-27 07:00:00 17.4 3 Sudeste 7 Este 0 951.8 0.6 73
2017-07-27 06:00:00 17.9 4 Este 10 Sudeste 0 951.6 0.2 71
2017-07-27 05:00:00 18.5 5 Este 8 Este 0 951.3 -0.3 72
2017-07-27 04:00:00 19.1 4 Este 8 Este 0 951.2 -0.8 70
2017-07-27 03:00:00 19.5 4 Sudeste 6 Este 0 951.4 -0.6 70
2017-07-27 02:00:00 19.3 3 Este 6 Este 0 951.6 -0.3 70
2017-07-27 01:00:00 20.6 2 Sudeste 4 Sudeste 0 952 0.5 66
2017-07-27 00:00:00 22.5 0 Calma 4 Noroeste 0 952 1 56
2017-07-26 23:00:00 26.1 0 Calma 12 Sudoeste 0 951.9 1.4 48
2017-07-26 22:00:00 28.2 6 Sur 14 Sur 0 951.5 1.1 44
2017-07-26 21:00:00 30 5 Sudoeste 19 Sudoeste 0 951 0.7 43
2017-07-26 20:00:00 31.3 9 Sudoeste 21 Sur 0 950.5 -0.4 42
2017-07-26 19:00:00 32.5 9 Sudoeste 22 Sudoeste 0 950.4 -1 40
2017-07-26 18:00:00 33.3 8 Sudoeste 20 Sudoeste 0 950.3 -1.5 38
2017-07-26 17:00:00 33 6 Sudoeste 22 Sudoeste 0 950.9 -1.3 38
2017-07-26 16:00:00 32.4 8 Sudoeste 17 Sudoeste 0 951.4 -1.1 40
2017-07-26 15:00:00 31.7 5 Sudoeste 18 Oeste 0 951.8 -0.7 42
2017-07-26 14:00:00 30.1 6 Sudoeste 15 Oeste 0 952.2 0 45
2017-07-26 13:00:00 28.1 5 Sudoeste 15 Sudoeste 0 952.5 0.6 51
2017-07-26 12:00:00 25 4 Sudoeste 9 Noroeste 0 952.5 1 62
2017-07-26 11:00:00 22.5 3 Oeste 7 Noroeste 0 952.2 1.4 64
2017-07-26 10:00:00 19.9 0 Calma 4 Sur 0 951.9 1.3 65
2017-07-26 09:00:00 18.2 2 Sudeste 5 Este 0 951.5 1.2 64
2017-07-26 08:00:00 16.9 3 Sudeste 8 Este 0 950.8 0.4 63
2017-07-26 07:00:00 17.6 4 Sudeste 6 Sudeste 0 950.6 0.1 61
2017-07-26 06:00:00 17.1 5 Este 7 Este 0 950.3 -0.3 63
2017-07-26 05:00:00 17.6 2 Sudeste 6 Este 0 950.4 -0.3 60
2017-07-26 04:00:00 18.3 3 Este 6 Oeste 0 950.5 -0.2 59
2017-07-26 03:00:00 20.6 4 Nordeste 10 Nordeste 0 950.6 0.1 56
2017-07-26 02:00:00 20.7 3 Sudeste 7 Este 0 950.7 0.4 62
2017-07-26 01:00:00 20.1 3 Este 6 Este 0 950.7 1.2 67
2017-07-26 00:00:00 21.6 4 Este 5 Este 0 950.5 1.3 60
2017-07-25 23:00:00 24 0 Calma 4 Oeste 0 950.3 1.5 49
2017-07-25 22:00:00 27.7 0 Calma 12 Sudoeste 0 949.5 0.9 41
2017-07-25 21:00:00 30.8 7 Sudoeste 21 Oeste 0 949.2 0.6 37
2017-07-25 20:00:00 32 7 Sudoeste 26 Sudoeste 0 948.8 -0.4 36
2017-07-25 19:00:00 34.6 7 Sudoeste 22 Oeste 0 948.6 -1.2 29
2017-07-25 18:00:00 36.4 8 Noroeste 26 Noroeste 0 948.6 -1.8 23
2017-07-25 17:00:00 36.1 9 Oeste 24 Oeste 0 949.2 -1.7 25
2017-07-25 16:00:00 34.8 6 Oeste 25 Oeste 0 949.8 -1.4 27
2017-07-25 15:00:00 34.5 9 Oeste 24 Oeste 0 950.4 -1.2 28
2017-07-25 14:00:00 34.3 8 Noroeste 19 Noroeste 0 950.9 -0.8 29
2017-07-25 13:00:00 33.3 4 Norte 15 Noroeste 0 951.2 -0.7 30
2017-07-25 12:00:00 31.8 4 Oeste 14 Noroeste 0 951.6 -0.2 34
2017-07-25 11:00:00 29.2 8 Nordeste 17 Nordeste 0 951.7 -0.1 40
2017-07-25 10:00:00 26.4 6 Nordeste 14 Nordeste 0 951.9 0.3 46
2017-07-25 09:00:00 21.2 3 Este 5 Sudeste 0 951.8 0.1 67
2017-07-25 08:00:00 16.7 4 Este 6 Este 0 951.8 -0.1 77
2017-07-25 07:00:00 16.2 3 Este 6 Este 0 951.6 -0.8 78
2017-07-25 06:00:00 17.1 4 Este 8 Sudeste 0 951.7 -0.9 74
2017-07-25 05:00:00 18.3 2 Sudeste 6 Este 0 951.9 -0.9 70
2017-07-25 04:00:00 19.2 3 Este 6 Sudeste 0 952.4 -0.9 66
2017-07-25 03:00:00 22.2 0 Calma 13 Noroeste 0 952.6 -0.7 52
2017-07-25 02:00:00 23.7 8 Noroeste 13 Noroeste 0 952.8 -0.5 45
2017-07-25 01:00:00 25.6 4 Noroeste 14 Norte 0 953.3 0.3 37
2017-07-25 00:00:00 26.7 3 Noroeste 15 Noroeste 0 953.3 0.5 34
2017-07-24 23:00:00 27.4 7 Norte 12 Norte 0 953.3 0.4 32
2017-07-24 22:00:00 28.8 5 Norte 12 Noroeste 0 953 0.1 30
2017-07-24 21:00:00 32.3 6 Noroeste 21 Noroeste 0 952.8 -0.3 26
2017-07-24 20:00:00 33.9 12 Noroeste 26 Norte 0 952.9 -0.5 25
2017-07-24 19:00:00 35.2 10 Noroeste 23 Norte 0 952.9 -1 25
2017-07-24 18:00:00 35.3 10 Noroeste 28 Noroeste 0 953.1 -1.1 25
2017-07-24 17:00:00 34.6 10 Oeste 25 Noroeste 0 953.4 -1.3 25
2017-07-24 16:00:00 34.9 13 Noroeste 29 Noroeste 0 953.9 -1.1 26
2017-07-24 15:00:00 33.9 12 Noroeste 30 Oeste 0 954.2 -1.2 29
2017-07-24 14:00:00 33 13 Oeste 24 Oeste 0 954.7 -0.9 33
2017-07-24 13:00:00 32.4 9 Noroeste 21 Norte 0 955 -0.7 36
2017-07-24 12:00:00 30.1 7 Noroeste 19 Oeste 0 955.4 0 43
2017-07-24 11:00:00 27.3 9 Norte 20 Norte 0 955.6 0.5 52
2017-07-24 10:00:00 25.2 6 Nordeste 20 Este 0 955.7 0.4 57
2017-07-24 09:00:00 22.3 6 Nordeste 13 Este 0 955.4 0.4 67
2017-07-24 08:00:00 19.6 0 Calma 10 Sur 0 955.1 0.2 72
2017-07-24 07:00:00 18.6 2 Sur 9 Noroeste 0 955.3 0.2 72
2017-07-24 06:00:00 18.7 2 Sudeste 10 Noroeste 0 955 -0.3 66
2017-07-24 05:00:00 21.6 4 Noroeste 15 Noroeste 0 954.9 -0.6 55
2017-07-24 04:00:00 22.2 7 Noroeste 20 Noroeste 0 955.1 -0.5 51
2017-07-24 03:00:00 23.2 11 Norte 21 Norte 0 955.3 0 47
2017-07-24 02:00:00 23.9 10 Noroeste 17 Noroeste 0 955.5 0.6 42
2017-07-24 01:00:00 25.1 6 Norte 13 Norte 0 955.6 1.3 37
2017-07-24 00:00:00 21.9 5 Norte 9 Norte 0 955.3 1.6 46
2017-07-23 23:00:00 22.3 3 Sudeste 7 Nordeste 0 954.9 1.7 45
2017-07-23 22:00:00 26.9 0 Calma 14 Sudoeste 0 954.3 1.1 34
2017-07-23 21:00:00 30.7 5 Sudoeste 19 Sur 0 953.7 0.4 29
2017-07-23 20:00:00 32.1 10 Sudoeste 22 Sur 0 953.2 -0.6 27
2017-07-23 19:00:00 32.8 9 Sudoeste 23 Sudoeste 0 953.2 -1.1 27
2017-07-23 18:00:00 33.2 8 Sudoeste 21 Oeste 0 953.3 -1.5 27
2017-07-23 17:00:00 33.8 2 Nordeste 20 Oeste 0 953.8 -1.5 25
2017-07-23 16:00:00 33.9 5 Noroeste 21 Noroeste 0 954.3 -0.9 25
2017-07-23 15:00:00 33.1 0 Calma 15 Oeste 0 954.8 -0.5 25
2017-07-23 14:00:00 31.9 0 Calma 41 Sudoeste 0 955.3 0.5 27
2017-07-23 13:00:00 30.5 4 Sudoeste 20 Sudoeste 0 955.2 0.5 31
2017-07-23 12:00:00 29.2 9 Oeste 19 Oeste 0 955.3 0.6 34
2017-07-23 11:00:00 27.7 5 Noroeste 12 Noroeste 0 954.8 0.6 42
2017-07-23 10:00:00 25.2 2 Sudeste 8 Este 0 954.7 0.9 56
2017-07-23 09:00:00 20.3 0 Calma 7 Este 0 954.7 1.2 73
2017-07-23 08:00:00 15.1 3 Sudeste 8 Este 0 954.2 0.8 86
2017-07-23 07:00:00 14.5 5 Este 8 Sudeste 0 953.8 0.4 83
2017-07-23 06:00:00 15.4 5 Este 7 Este 0 953.5 -0.1 78
2017-07-23 05:00:00 16.5 4 Este 7 Este 0 953.4 -0.1 73
2017-07-23 04:00:00 18.6 0 Calma 17 Noroeste 0 953.4 0.2 64
2017-07-23 03:00:00 19 4 Norte 13 Oeste 0 953.6 0.6 60
2017-07-23 02:00:00 17.4 4 Este 7 Este 0 953.5 0.8 63
2017-07-23 01:00:00 18.9 4 Sudeste 6 Este 0 953.2 1.4 59
2017-07-23 00:00:00 19.9 0 Calma 4 Sudeste 0 953 1.8 51